sensor_id;sensor_type;location;lat;lon;timestamp;pressure;altitude;pressure_sealevel;temperature;humidity
70488;BME280;57976;48.174;16.370;2022-10-16T00:01:50;99497.41;;;14.45;100.00
70488;BME280;57976;48.174;16.370;2022-10-16T00:03:55;99491.88;;;14.46;100.00
70488;BME280;57976;48.174;16.370;2022-10-16T00:06:02;99492.58;;;14.46;100.00
70488;BME280;57976;48.174;16.370;2022-10-16T00:08:08;99497.98;;;14.46;100.00
70488;BME280;57976;48.174;16.370;2022-10-16T00:10:13;99503.40;;;14.44;100.00
70488;BME280;57976;48.174;16.370;2022-10-16T00:12:18;99504.10;;;14.44;100.00
70488;BME280;57976;48.174;16.370;2022-10-16T00:14:22;99502.45;;;14.43;100.00
70488;BME280;57976;48.174;16.370;2022-10-16T00:16:28;99501.77;;;14.44;100.00
70488;BME280;57976;48.174;16.370;2022-10-16T00:18:33;99500.02;;;14.43;100.00
70488;BME280;57976;48.174;16.370;2022-10-16T00:20:38;99501.79;;;14.44;100.00
70488;BME280;57976;48.174;16.370;2022-10-16T00:22:42;99499.55;;;14.45;100.00
70488;BME280;57976;48.174;16.370;2022-10-16T00:24:47;99502.27;;;14.46;100.00
70488;BME280;57976;48.174;16.370;2022-10-16T00:26:52;99507.66;;;14.47;100.00
70488;BME280;57976;48.174;16.370;2022-10-16T00:28:57;99509.23;;;14.47;100.00
70488;BME280;57976;48.174;16.370;2022-10-16T00:31:04;99505.05;;;14.47;100.00
70488;BME280;57976;48.174;16.370;2022-10-16T00:33:09;99500.20;;;14.45;100.00
70488;BME280;57976;48.174;16.370;2022-10-16T00:35:14;99491.23;;;14.43;100.00
70488;BME280;57976;48.174;16.370;2022-10-16T00:37:18;99496.77;;;14.43;100.00
70488;BME280;57976;48.174;16.370;2022-10-16T00:39:23;99499.21;;;14.42;100.00
70488;BME280;57976;48.174;16.370;2022-10-16T00:41:28;99503.04;;;14.43;100.00
70488;BME280;57976;48.174;16.370;2022-10-16T00:43:40;99507.38;;;14.45;100.00
70488;BME280;57976;48.174;16.370;2022-10-16T00:45:45;99509.84;;;14.43;100.00
70488;BME280;57976;48.174;16.370;2022-10-16T00:47:50;99511.93;;;14.43;100.00
70488;BME280;57976;48.174;16.370;2022-10-16T00:50:02;99514.27;;;14.44;100.00
70488;BME280;57976;48.174;16.370;2022-10-16T00:52:11;99514.52;;;14.46;100.00
70488;BME280;57976;48.174;16.370;2022-10-16T00:54:18;99520.73;;;14.46;100.00
70488;BME280;57976;48.174;16.370;2022-10-16T00:56:24;99520.13;;;14.47;100.00
70488;BME280;57976;48.174;16.370;2022-10-16T00:58:29;99522.27;;;14.47;100.00
70488;BME280;57976;48.174;16.370;2022-10-16T01:00:33;99531.21;;;14.46;100.00
70488;BME280;57976;48.174;16.370;2022-10-16T01:02:41;99526.27;;;14.45;100.00
70488;BME280;57976;48.174;16.370;2022-10-16T01:04:48;99527.48;;;14.43;100.00
70488;BME280;57976;48.174;16.370;2022-10-16T01:07:00;99526.27;;;14.42;100.00
70488;BME280;57976;48.174;16.370;2022-10-16T01:09:17;99523.32;;;14.40;100.00
70488;BME280;57976;48.174;16.370;2022-10-16T01:11:29;99520.96;;;14.35;100.00
70488;BME280;57976;48.174;16.370;2022-10-16T01:13:42;99518.45;;;14.28;100.00
70488;BME280;57976;48.174;16.370;2022-10-16T01:15:53;99518.02;;;14.25;100.00
70488;BME280;57976;48.174;16.370;2022-10-16T01:18:03;99516.69;;;14.26;100.00
70488;BME280;57976;48.174;16.370;2022-10-16T01:20:18;99512.02;;;14.29;100.00
70488;BME280;57976;48.174;16.370;2022-10-16T01:22:29;99508.56;;;14.33;100.00
70488;BME280;57976;48.174;16.370;2022-10-16T01:24:40;99509.10;;;14.38;100.00
70488;BME280;57976;48.174;16.370;2022-10-16T01:26:59;99513.48;;;14.34;100.00
70488;BME280;57976;48.174;16.370;2022-10-16T01:29:07;99514.20;;;14.30;100.00
70488;BME280;57976;48.174;16.370;2022-10-16T01:31:16;99516.15;;;14.29;100.00
70488;BME280;57976;48.174;16.370;2022-10-16T01:33:24;99520.73;;;14.25;100.00
70488;BME280;57976;48.174;16.370;2022-10-16T01:35:36;99521.80;;;14.27;100.00
70488;BME280;57976;48.174;16.370;2022-10-16T01:37:47;99519.23;;;14.30;100.00
70488;BME280;57976;48.174;16.370;2022-10-16T01:39:57;99515.84;;;14.31;100.00
70488;BME280;57976;48.174;16.370;2022-10-16T01:42:06;99515.13;;;14.34;100.00
70488;BME280;57976;48.174;16.370;2022-10-16T01:44:18;99513.89;;;14.37;100.00
70488;BME280;57976;48.174;16.370;2022-10-16T01:46:24;99514.42;;;14.38;100.00
70488;BME280;57976;48.174;16.370;2022-10-16T01:48:30;99518.05;;;14.39;100.00
70488;BME280;57976;48.174;16.370;2022-10-16T01:50:39;99518.11;;;14.41;100.00
70488;BME280;57976;48.174;16.370;2022-10-16T01:52:48;99516.13;;;14.41;100.00
70488;BME280;57976;48.174;16.370;2022-10-16T01:54:54;99514.23;;;14.42;100.00
70488;BME280;57976;48.174;16.370;2022-10-16T01:57:01;99515.56;;;14.43;100.00
70488;BME280;57976;48.174;16.370;2022-10-16T01:59:12;99519.73;;;14.43;100.00
70488;BME280;57976;48.174;16.370;2022-10-16T02:01:20;99520.45;;;14.45;100.00
70488;BME280;57976;48.174;16.370;2022-10-16T02:03:26;99521.52;;;14.46;100.00
70488;BME280;57976;48.174;16.370;2022-10-16T02:05:34;99520.12;;;14.47;100.00
70488;BME280;57976;48.174;16.370;2022-10-16T02:07:42;99521.43;;;14.48;100.00
70488;BME280;57976;48.174;16.370;2022-10-16T02:09:47;99524.43;;;14.48;100.00
70488;BME280;57976;48.174;16.370;2022-10-16T02:11:54;99529.14;;;14.48;100.00
70488;BME280;57976;48.174;16.370;2022-10-16T02:14:03;99525.48;;;14.46;100.00
70488;BME280;57976;48.174;16.370;2022-10-16T02:16:10;99523.84;;;14.45;100.00
70488;BME280;57976;48.174;16.370;2022-10-16T02:18:15;99526.16;;;14.43;100.00
70488;BME280;57976;48.174;16.370;2022-10-16T02:20:25;99523.83;;;14.42;100.00
70488;BME280;57976;48.174;16.370;2022-10-16T02:22:34;99526.24;;;14.43;100.00
70488;BME280;57976;48.174;16.370;2022-10-16T02:24:45;99535.27;;;14.41;100.00
70488;BME280;57976;48.174;16.370;2022-10-16T02:27:01;99540.54;;;14.41;100.00
70488;BME280;57976;48.174;16.370;2022-10-16T02:29:10;99536.76;;;14.40;100.00
70488;BME280;57976;48.174;16.370;2022-10-16T02:31:20;99534.13;;;14.38;100.00
70488;BME280;57976;48.174;16.370;2022-10-16T02:33:28;99534.05;;;14.38;100.00
70488;BME280;57976;48.174;16.370;2022-10-16T02:35:33;99530.30;;;14.37;100.00
70488;BME280;57976;48.174;16.370;2022-10-16T02:37:40;99530.98;;;14.35;100.00
70488;BME280;57976;48.174;16.370;2022-10-16T02:39:45;99531.69;;;14.30;100.00
70488;BME280;57976;48.174;16.370;2022-10-16T02:41:50;99535.15;;;14.27;100.00
70488;BME280;57976;48.174;16.370;2022-10-16T02:43:54;99537.88;;;14.27;100.00
70488;BME280;57976;48.174;16.370;2022-10-16T02:45:59;99538.84;;;14.20;100.00
70488;BME280;57976;48.174;16.370;2022-10-16T02:48:04;99544.41;;;14.14;100.00
70488;BME280;57976;48.174;16.370;2022-10-16T02:50:09;99546.30;;;14.04;100.00
70488;BME280;57976;48.174;16.370;2022-10-16T02:52:14;99550.67;;;13.97;100.00
70488;BME280;57976;48.174;16.370;2022-10-16T02:54:19;99550.99;;;13.92;100.00
70488;BME280;57976;48.174;16.370;2022-10-16T02:56:24;99551.77;;;13.93;100.00
70488;BME280;57976;48.174;16.370;2022-10-16T02:58:29;99547.93;;;13.94;100.00
70488;BME280;57976;48.174;16.370;2022-10-16T03:00:34;99545.30;;;13.94;100.00
70488;BME280;57976;48.174;16.370;2022-10-16T03:02:38;99545.73;;;13.93;100.00
70488;BME280;57976;48.174;16.370;2022-10-16T03:04:43;99548.27;;;13.92;100.00
70488;BME280;57976;48.174;16.370;2022-10-16T03:06:48;99547.49;;;13.87;100.00
70488;BME280;57976;48.174;16.370;2022-10-16T03:08:52;99547.05;;;13.85;100.00
70488;BME280;57976;48.174;16.370;2022-10-16T03:10:57;99543.68;;;13.85;100.00
70488;BME280;57976;48.174;16.370;2022-10-16T03:13:04;99542.62;;;13.87;100.00
70488;BME280;57976;48.174;16.370;2022-10-16T03:15:11;99538.45;;;13.90;100.00
70488;BME280;57976;48.174;16.370;2022-10-16T03:17:16;99538.10;;;13.93;100.00
70488;BME280;57976;48.174;16.370;2022-10-16T03:19:22;99543.55;;;13.91;100.00
70488;BME280;57976;48.174;16.370;2022-10-16T03:21:26;99545.62;;;13.84;100.00
70488;BME280;57976;48.174;16.370;2022-10-16T03:23:31;99552.95;;;13.77;100.00
70488;BME280;57976;48.174;16.370;2022-10-16T03:25:36;99561.34;;;13.74;100.00
70488;BME280;57976;48.174;16.370;2022-10-16T03:27:40;99562.86;;;13.74;100.00
70488;BME280;57976;48.174;16.370;2022-10-16T03:29:48;99561.81;;;13.77;100.00
70488;BME280;57976;48.174;16.370;2022-10-16T03:31:53;99559.55;;;13.78;100.00
70488;BME280;57976;48.174;16.370;2022-10-16T03:33:57;99554.78;;;13.75;100.00
70488;BME280;57976;48.174;16.370;2022-10-16T03:36:02;99560.24;;;13.73;100.00
70488;BME280;57976;48.174;16.370;2022-10-16T03:38:07;99564.44;;;13.71;100.00
70488;BME280;57976;48.174;16.370;2022-10-16T03:40:12;99569.36;;;13.69;100.00
70488;BME280;57976;48.174;16.370;2022-10-16T03:42:17;99566.58;;;13.65;100.00
70488;BME280;57976;48.174;16.370;2022-10-16T03:44:21;99566.10;;;13.63;100.00
70488;BME280;57976;48.174;16.370;2022-10-16T03:46:26;99566.70;;;13.58;100.00
70488;BME280;57976;48.174;16.370;2022-10-16T03:48:31;99574.17;;;13.54;100.00
70488;BME280;57976;48.174;16.370;2022-10-16T03:50:36;99578.48;;;13.51;100.00
70488;BME280;57976;48.174;16.370;2022-10-16T03:52:40;99582.42;;;13.51;100.00
70488;BME280;57976;48.174;16.370;2022-10-16T03:54:45;99586.17;;;13.51;100.00
70488;BME280;57976;48.174;16.370;2022-10-16T03:56:50;99585.09;;;13.53;100.00
70488;BME280;57976;48.174;16.370;2022-10-16T03:58:55;99589.45;;;13.55;100.00
70488;BME280;57976;48.174;16.370;2022-10-16T04:01:00;99594.36;;;13.54;100.00
70488;BME280;57976;48.174;16.370;2022-10-16T04:03:04;99593.38;;;13.52;100.00
70488;BME280;57976;48.174;16.370;2022-10-16T04:05:09;99598.16;;;13.50;100.00
70488;BME280;57976;48.174;16.370;2022-10-16T04:07:14;99599.08;;;13.47;100.00
70488;BME280;57976;48.174;16.370;2022-10-16T04:09:18;99606.64;;;13.44;100.00
70488;BME280;57976;48.174;16.370;2022-10-16T04:11:23;99605.77;;;13.41;100.00
70488;BME280;57976;48.174;16.370;2022-10-16T04:13:28;99598.22;;;13.35;100.00
70488;BME280;57976;48.174;16.370;2022-10-16T04:15:32;99592.92;;;13.34;100.00
70488;BME280;57976;48.174;16.370;2022-10-16T04:17:37;99585.96;;;13.32;100.00
70488;BME280;57976;48.174;16.370;2022-10-16T04:19:41;99583.34;;;13.29;100.00
70488;BME280;57976;48.174;16.370;2022-10-16T04:21:46;99586.77;;;13.25;100.00
70488;BME280;57976;48.174;16.370;2022-10-16T04:23:51;99588.77;;;13.21;100.00
70488;BME280;57976;48.174;16.370;2022-10-16T04:25:55;99592.36;;;13.18;100.00
70488;BME280;57976;48.174;16.370;2022-10-16T04:28:00;99596.70;;;13.14;100.00
70488;BME280;57976;48.174;16.370;2022-10-16T04:30:06;99600.45;;;13.12;100.00
70488;BME280;57976;48.174;16.370;2022-10-16T04:32:11;99597.79;;;13.12;100.00
70488;BME280;57976;48.174;16.370;2022-10-16T04:34:16;99596.58;;;13.09;100.00
70488;BME280;57976;48.174;16.370;2022-10-16T04:36:21;99592.05;;;13.05;100.00
70488;BME280;57976;48.174;16.370;2022-10-16T04:38:30;99590.58;;;13.02;100.00
70488;BME280;57976;48.174;16.370;2022-10-16T04:40:34;99594.23;;;12.98;100.00
70488;BME280;57976;48.174;16.370;2022-10-16T04:42:39;99599.54;;;12.97;100.00
70488;BME280;57976;48.174;16.370;2022-10-16T04:44:44;99597.77;;;12.96;100.00
70488;BME280;57976;48.174;16.370;2022-10-16T04:46:49;99600.54;;;12.95;100.00
70488;BME280;57976;48.174;16.370;2022-10-16T04:48:54;99600.65;;;12.94;100.00
70488;BME280;57976;48.174;16.370;2022-10-16T04:50:59;99598.41;;;12.92;100.00
70488;BME280;57976;48.174;16.370;2022-10-16T04:53:03;99595.89;;;12.89;100.00
70488;BME280;57976;48.174;16.370;2022-10-16T04:55:09;99601.63;;;12.89;100.00
70488;BME280;57976;48.174;16.370;2022-10-16T04:57:14;99608.94;;;12.88;100.00
70488;BME280;57976;48.174;16.370;2022-10-16T04:59:19;99617.75;;;12.87;100.00
70488;BME280;57976;48.174;16.370;2022-10-16T05:01:24;99618.86;;;12.84;100.00
70488;BME280;57976;48.174;16.370;2022-10-16T05:03:28;99623.02;;;12.82;100.00
70488;BME280;57976;48.174;16.370;2022-10-16T05:05:34;99621.79;;;12.77;100.00
70488;BME280;57976;48.174;16.370;2022-10-16T05:07:39;99622.05;;;12.70;100.00
70488;BME280;57976;48.174;16.370;2022-10-16T05:09:43;99621.96;;;12.64;100.00
70488;BME280;57976;48.174;16.370;2022-10-16T05:11:48;99620.70;;;12.60;100.00
70488;BME280;57976;48.174;16.370;2022-10-16T05:13:53;99622.66;;;12.62;100.00
70488;BME280;57976;48.174;16.370;2022-10-16T05:15:59;99622.45;;;12.64;100.00
70488;BME280;57976;48.174;16.370;2022-10-16T05:18:04;99626.13;;;12.62;100.00
70488;BME280;57976;48.174;16.370;2022-10-16T05:20:09;99630.33;;;12.62;100.00
70488;BME280;57976;48.174;16.370;2022-10-16T05:22:14;99634.05;;;12.63;100.00
70488;BME280;57976;48.174;16.370;2022-10-16T05:24:20;99632.48;;;12.63;100.00
70488;BME280;57976;48.174;16.370;2022-10-16T05:26:24;99643.61;;;12.61;100.00
70488;BME280;57976;48.174;16.370;2022-10-16T05:28:30;99647.42;;;12.62;100.00
70488;BME280;57976;48.174;16.370;2022-10-16T05:30:36;99644.87;;;12.63;100.00
70488;BME280;57976;48.174;16.370;2022-10-16T05:32:41;99649.40;;;12.63;100.00
70488;BME280;57976;48.174;16.370;2022-10-16T05:34:46;99651.34;;;12.63;100.00
70488;BME280;57976;48.174;16.370;2022-10-16T05:36:50;99652.65;;;12.63;100.00
70488;BME280;57976;48.174;16.370;2022-10-16T05:38:55;99650.09;;;12.56;100.00
70488;BME280;57976;48.174;16.370;2022-10-16T05:41:00;99649.11;;;12.54;100.00
70488;BME280;57976;48.174;16.370;2022-10-16T05:43:05;99646.27;;;12.57;100.00
70488;BME280;57976;48.174;16.370;2022-10-16T05:45:11;99644.46;;;12.65;100.00
70488;BME280;57976;48.174;16.370;2022-10-16T05:47:15;99652.98;;;12.71;100.00
70488;BME280;57976;48.174;16.370;2022-10-16T05:49:20;99658.89;;;12.76;100.00
70488;BME280;57976;48.174;16.370;2022-10-16T05:51:25;99663.91;;;12.83;100.00
70488;BME280;57976;48.174;16.370;2022-10-16T05:53:32;99666.37;;;12.91;100.00
70488;BME280;57976;48.174;16.370;2022-10-16T05:55:37;99674.30;;;13.00;100.00
70488;BME280;57976;48.174;16.370;2022-10-16T05:57:42;99673.20;;;13.06;100.00
70488;BME280;57976;48.174;16.370;2022-10-16T05:59:46;99676.58;;;13.13;100.00
70488;BME280;57976;48.174;16.370;2022-10-16T06:01:51;99676.53;;;13.17;100.00
70488;BME280;57976;48.174;16.370;2022-10-16T06:03:56;99675.70;;;13.22;100.00
70488;BME280;57976;48.174;16.370;2022-10-16T06:06:08;99683.73;;;13.27;100.00
70488;BME280;57976;48.174;16.370;2022-10-16T06:08:17;99687.52;;;13.29;100.00
70488;BME280;57976;48.174;16.370;2022-10-16T06:10:22;99695.10;;;13.33;100.00
70488;BME280;57976;48.174;16.370;2022-10-16T06:12:30;99699.71;;;13.36;100.00
70488;BME280;57976;48.174;16.370;2022-10-16T06:14:34;99701.09;;;13.38;100.00
70488;BME280;57976;48.174;16.370;2022-10-16T06:16:39;99702.98;;;13.43;100.00
70488;BME280;57976;48.174;16.370;2022-10-16T06:18:44;99699.80;;;13.45;100.00
70488;BME280;57976;48.174;16.370;2022-10-16T06:20:49;99698.30;;;13.51;100.00
70488;BME280;57976;48.174;16.370;2022-10-16T06:22:53;99698.98;;;13.57;100.00
70488;BME280;57976;48.174;16.370;2022-10-16T06:24:58;99703.18;;;13.60;100.00
70488;BME280;57976;48.174;16.370;2022-10-16T06:27:04;99706.27;;;13.61;100.00
70488;BME280;57976;48.174;16.370;2022-10-16T06:29:09;99711.95;;;13.63;100.00
70488;BME280;57976;48.174;16.370;2022-10-16T06:31:14;99720.79;;;13.65;100.00
70488;BME280;57976;48.174;16.370;2022-10-16T06:33:19;99722.19;;;13.66;100.00
70488;BME280;57976;48.174;16.370;2022-10-16T06:35:24;99725.85;;;13.69;100.00
70488;BME280;57976;48.174;16.370;2022-10-16T06:37:29;99727.48;;;13.74;100.00
70488;BME280;57976;48.174;16.370;2022-10-16T06:39:34;99725.80;;;13.74;100.00
70488;BME280;57976;48.174;16.370;2022-10-16T06:41:38;99725.21;;;13.74;100.00
70488;BME280;57976;48.174;16.370;2022-10-16T06:43:52;99732.20;;;13.79;100.00
70488;BME280;57976;48.174;16.370;2022-10-16T06:45:58;99734.33;;;13.81;100.00
70488;BME280;57976;48.174;16.370;2022-10-16T06:48:03;99733.56;;;13.87;100.00
70488;BME280;57976;48.174;16.370;2022-10-16T06:50:09;99731.52;;;13.95;100.00
70488;BME280;57976;48.174;16.370;2022-10-16T06:52:13;99734.66;;;14.00;100.00
70488;BME280;57976;48.174;16.370;2022-10-16T06:54:18;99734.58;;;14.04;100.00
70488;BME280;57976;48.174;16.370;2022-10-16T06:56:24;99736.01;;;14.07;100.00
70488;BME280;57976;48.174;16.370;2022-10-16T06:58:29;99743.83;;;14.05;100.00
70488;BME280;57976;48.174;16.370;2022-10-16T07:00:34;99751.35;;;14.01;100.00
70488;BME280;57976;48.174;16.370;2022-10-16T07:02:38;99760.20;;;13.97;100.00
70488;BME280;57976;48.174;16.370;2022-10-16T07:04:43;99767.61;;;13.96;100.00
70488;BME280;57976;48.174;16.370;2022-10-16T07:06:48;99770.58;;;13.95;100.00
70488;BME280;57976;48.174;16.370;2022-10-16T07:08:52;99774.77;;;13.90;100.00
70488;BME280;57976;48.174;16.370;2022-10-16T07:11:01;99774.45;;;13.81;100.00
70488;BME280;57976;48.174;16.370;2022-10-16T07:13:06;99772.11;;;13.78;100.00
70488;BME280;57976;48.174;16.370;2022-10-16T07:15:11;99773.27;;;13.79;100.00
70488;BME280;57976;48.174;16.370;2022-10-16T07:17:17;99769.90;;;13.81;100.00
70488;BME280;57976;48.174;16.370;2022-10-16T07:19:22;99771.48;;;13.86;100.00
70488;BME280;57976;48.174;16.370;2022-10-16T07:21:28;99770.17;;;13.93;100.00
70488;BME280;57976;48.174;16.370;2022-10-16T07:23:33;99776.51;;;13.96;100.00
70488;BME280;57976;48.174;16.370;2022-10-16T07:25:38;99775.42;;;14.03;100.00
70488;BME280;57976;48.174;16.370;2022-10-16T07:27:42;99777.86;;;14.09;100.00
70488;BME280;57976;48.174;16.370;2022-10-16T07:29:47;99778.17;;;14.12;100.00
70488;BME280;57976;48.174;16.370;2022-10-16T07:31:52;99774.30;;;14.16;100.00
70488;BME280;57976;48.174;16.370;2022-10-16T07:33:57;99769.56;;;14.23;100.00
70488;BME280;57976;48.174;16.370;2022-10-16T07:36:02;99771.45;;;14.24;100.00
70488;BME280;57976;48.174;16.370;2022-10-16T07:38:07;99771.32;;;14.27;100.00
70488;BME280;57976;48.174;16.370;2022-10-16T07:40:12;99776.91;;;14.33;100.00
70488;BME280;57976;48.174;16.370;2022-10-16T07:42:16;99778.36;;;14.37;100.00
70488;BME280;57976;48.174;16.370;2022-10-16T07:44:21;99780.80;;;14.42;100.00
70488;BME280;57976;48.174;16.370;2022-10-16T07:46:26;99778.83;;;14.49;100.00
70488;BME280;57976;48.174;16.370;2022-10-16T07:48:32;99784.34;;;14.52;100.00
70488;BME280;57976;48.174;16.370;2022-10-16T07:50:37;99782.55;;;14.54;100.00
70488;BME280;57976;48.174;16.370;2022-10-16T07:52:42;99785.54;;;14.57;100.00
70488;BME280;57976;48.174;16.370;2022-10-16T07:54:47;99790.84;;;14.60;100.00
70488;BME280;57976;48.174;16.370;2022-10-16T07:56:53;99789.27;;;14.56;100.00
70488;BME280;57976;48.174;16.370;2022-10-16T07:58:59;99790.59;;;14.54;100.00
70488;BME280;57976;48.174;16.370;2022-10-16T08:01:06;99792.52;;;14.54;100.00
70488;BME280;57976;48.174;16.370;2022-10-16T08:03:14;99796.14;;;14.50;100.00
70488;BME280;57976;48.174;16.370;2022-10-16T08:05:19;99798.47;;;14.46;100.00
70488;BME280;57976;48.174;16.370;2022-10-16T08:07:26;99799.27;;;14.45;100.00
70488;BME280;57976;48.174;16.370;2022-10-16T08:09:32;99801.23;;;14.45;100.00
70488;BME280;57976;48.174;16.370;2022-10-16T08:11:36;99803.26;;;14.45;100.00
70488;BME280;57976;48.174;16.370;2022-10-16T08:13:42;99807.54;;;14.48;100.00
70488;BME280;57976;48.174;16.370;2022-10-16T08:15:48;99808.95;;;14.53;100.00
70488;BME280;57976;48.174;16.370;2022-10-16T08:18:00;99812.70;;;14.56;100.00
70488;BME280;57976;48.174;16.370;2022-10-16T08:20:07;99816.98;;;14.56;100.00
70488;BME280;57976;48.174;16.370;2022-10-16T08:22:12;99818.88;;;14.56;100.00
70488;BME280;57976;48.174;16.370;2022-10-16T08:24:18;99821.20;;;14.63;100.00
70488;BME280;57976;48.174;16.370;2022-10-16T08:26:22;99818.33;;;14.66;100.00
70488;BME280;57976;48.174;16.370;2022-10-16T08:28:27;99818.79;;;14.71;100.00
70488;BME280;57976;48.174;16.370;2022-10-16T08:30:32;99821.17;;;14.74;100.00
70488;BME280;57976;48.174;16.370;2022-10-16T08:32:37;99824.78;;;14.78;100.00
70488;BME280;57976;48.174;16.370;2022-10-16T08:34:42;99825.36;;;14.84;100.00
70488;BME280;57976;48.174;16.370;2022-10-16T08:36:46;99825.95;;;14.90;100.00
70488;BME280;57976;48.174;16.370;2022-10-16T08:38:54;99828.30;;;14.94;100.00
70488;BME280;57976;48.174;16.370;2022-10-16T08:41:19;99825.92;;;14.98;100.00
70488;BME280;57976;48.174;16.370;2022-10-16T08:43:47;99826.23;;;15.03;100.00
70488;BME280;57976;48.174;16.370;2022-10-16T08:48:29;99830.55;;;15.05;100.00
70488;BME280;57976;48.174;16.370;2022-10-16T08:50:38;99832.42;;;15.07;100.00
70488;BME280;57976;48.174;16.370;2022-10-16T08:52:45;99833.91;;;15.07;100.00
70488;BME280;57976;48.174;16.370;2022-10-16T08:54:51;99834.51;;;15.11;100.00
70488;BME280;57976;48.174;16.370;2022-10-16T08:57:06;99833.91;;;15.12;100.00
70488;BME280;57976;48.174;16.370;2022-10-16T08:59:13;99831.88;;;15.15;99.94
70488;BME280;57976;48.174;16.370;2022-10-16T09:01:20;99830.49;;;15.16;99.99
70488;BME280;57976;48.174;16.370;2022-10-16T09:03:39;99832.55;;;15.18;99.88
70488;BME280;57976;48.174;16.370;2022-10-16T09:06:05;99838.00;;;15.19;99.68
70488;BME280;57976;48.174;16.370;2022-10-16T09:08:17;99838.37;;;15.19;99.88
70488;BME280;57976;48.174;16.370;2022-10-16T09:10:34;99837.70;;;15.18;98.99
70488;BME280;57976;48.174;16.370;2022-10-16T09:12:48;99840.83;;;15.15;98.55
70488;BME280;57976;48.174;16.370;2022-10-16T09:15:03;99841.33;;;15.09;98.71
70488;BME280;57976;48.174;16.370;2022-10-16T09:17:24;99846.06;;;15.11;99.64
70488;BME280;57976;48.174;16.370;2022-10-16T09:19:40;99845.23;;;15.15;99.02
70488;BME280;57976;48.174;16.370;2022-10-16T09:21:50;99847.95;;;15.18;99.05
70488;BME280;57976;48.174;16.370;2022-10-16T09:23:55;99848.23;;;15.20;99.37
70488;BME280;57976;48.174;16.370;2022-10-16T09:26:01;99852.16;;;15.25;98.95
70488;BME280;57976;48.174;16.370;2022-10-16T09:28:08;99851.60;;;15.27;98.90
70488;BME280;57976;48.174;16.370;2022-10-16T09:30:17;99851.77;;;15.32;99.05
70488;BME280;57976;48.174;16.370;2022-10-16T09:32:22;99851.27;;;15.37;98.65
70488;BME280;57976;48.174;16.370;2022-10-16T09:34:30;99855.80;;;15.42;98.68
70488;BME280;57976;48.174;16.370;2022-10-16T09:36:42;99862.38;;;15.47;98.50
70488;BME280;57976;48.174;16.370;2022-10-16T09:38:48;99867.95;;;15.54;98.41
70488;BME280;57976;48.174;16.370;2022-10-16T09:40:53;99867.66;;;15.58;97.81
70488;BME280;57976;48.174;16.370;2022-10-16T09:43:16;99872.27;;;15.64;97.73
70488;BME280;57976;48.174;16.370;2022-10-16T09:45:24;99873.29;;;15.72;97.87
70488;BME280;57976;48.174;16.370;2022-10-16T09:47:30;99879.73;;;15.76;96.94
70488;BME280;57976;48.174;16.370;2022-10-16T09:49:35;99884.02;;;15.77;96.50
70488;BME280;57976;48.174;16.370;2022-10-16T09:51:40;99888.92;;;15.74;95.91
70488;BME280;57976;48.174;16.370;2022-10-16T09:53:46;99884.86;;;15.67;95.14
70488;BME280;57976;48.174;16.370;2022-10-16T09:55:52;99881.39;;;15.44;94.77
70488;BME280;57976;48.174;16.370;2022-10-16T09:57:57;99881.65;;;15.19;95.71
70488;BME280;57976;48.174;16.370;2022-10-16T10:00:08;99879.20;;;15.06;97.46
70488;BME280;57976;48.174;16.370;2022-10-16T10:02:15;99877.16;;;15.09;98.95
70488;BME280;57976;48.174;16.370;2022-10-16T10:04:25;99874.56;;;15.16;98.90
70488;BME280;57976;48.174;16.370;2022-10-16T10:06:31;99876.66;;;15.27;99.05
70488;BME280;57976;48.174;16.370;2022-10-16T10:08:37;99876.60;;;15.36;98.84
70488;BME280;57976;48.174;16.370;2022-10-16T10:10:49;99873.38;;;15.45;98.70
70488;BME280;57976;48.174;16.370;2022-10-16T10:12:54;99881.16;;;15.55;98.29
70488;BME280;57976;48.174;16.370;2022-10-16T10:15:06;99880.37;;;15.65;98.68
70488;BME280;57976;48.174;16.370;2022-10-16T10:17:17;99883.13;;;15.76;98.16
70488;BME280;57976;48.174;16.370;2022-10-16T10:19:23;99885.38;;;15.82;97.49
70488;BME280;57976;48.174;16.370;2022-10-16T10:21:35;99886.80;;;15.89;97.34
70488;BME280;57976;48.174;16.370;2022-10-16T10:23:41;99888.64;;;15.93;96.80
70488;BME280;57976;48.174;16.370;2022-10-16T10:25:51;99889.07;;;15.99;96.84
70488;BME280;57976;48.174;16.370;2022-10-16T10:28:10;99886.11;;;16.04;96.49
70488;BME280;57976;48.174;16.370;2022-10-16T10:30:25;99887.43;;;16.09;95.79
70488;BME280;57976;48.174;16.370;2022-10-16T10:32:36;99884.64;;;16.11;95.94
70488;BME280;57976;48.174;16.370;2022-10-16T10:34:56;99887.58;;;16.19;96.02
70488;BME280;57976;48.174;16.370;2022-10-16T10:37:12;99884.58;;;16.24;95.29
70488;BME280;57976;48.174;16.370;2022-10-16T10:39:25;99885.19;;;16.25;94.75
70488;BME280;57976;48.174;16.370;2022-10-16T10:44:16;99886.36;;;16.21;94.91
70488;BME280;57976;48.174;16.370;2022-10-16T10:46:29;99878.27;;;16.20;94.73
70488;BME280;57976;48.174;16.370;2022-10-16T10:48:57;99876.17;;;16.18;94.42
70488;BME280;57976;48.174;16.370;2022-10-16T10:51:10;99870.62;;;16.18;95.01
70488;BME280;57976;48.174;16.370;2022-10-16T10:53:28;99865.98;;;16.19;94.93
70488;BME280;57976;48.174;16.370;2022-10-16T10:55:40;99864.82;;;16.12;94.97
70488;BME280;57976;48.174;16.370;2022-10-16T10:57:57;99861.76;;;16.11;95.16
70488;BME280;57976;48.174;16.370;2022-10-16T11:00:18;99868.87;;;16.19;95.84
70488;BME280;57976;48.174;16.370;2022-10-16T11:02:31;99870.45;;;16.27;95.60
70488;BME280;57976;48.174;16.370;2022-10-16T11:07:11;99866.11;;;16.33;95.24